Time;durP1;ratioP1;P1;durP2;ratioP2;P2;SDS_P1;SDS_P2;PMS_P1;PMS_P2;Temp;Humidity;BMP_temperature;BMP_pressure;BME280_temperature;BME280_humidity;BME280_pressure;Samples;Min_cycle;Max_cycle;Signal;HPM_P1;HPM_P2
2022/12/20 00:01:13;;;;;;;15.00;4.00;;;;;;;9.59;100.00;101220.63;5024363;28;20084;-66
2022/12/20 00:03:38;;;;;;;11.10;3.80;;;;;;;9.58;100.00;101222.38;5027593;28;20113;-66
2022/12/20 00:06:04;;;;;;;12.73;4.00;;;;;;;9.60;100.00;101230.31;5024699;28;20477;-67
2022/12/20 00:08:30;;;;;;;12.52;4.03;;;;;;;9.60;100.00;101230.31;5026877;28;20461;-76
2022/12/20 00:10:58;;;;;;;14.43;4.10;;;;;;;9.62;100.00;101232.97;5025175;28;20022;-76
2022/12/20 00:13:24;;;;;;;12.73;4.07;;;;;;;9.63;100.00;101222.44;5026221;28;20473;-76
2022/12/20 00:15:49;;;;;;;13.65;3.75;;;;;;;9.67;100.00;101223.34;5026220;28;20048;-76
2022/12/20 00:18:14;;;;;;;12.75;3.90;;;;;;;9.64;100.00;101218.03;5024646;28;20488;-75
2022/12/20 00:20:40;;;;;;;14.32;4.18;;;;;;;9.62;100.00;101217.13;5027375;28;20480;-74
2022/12/20 00:23:05;;;;;;;13.20;4.03;;;;;;;9.68;100.00;101212.81;5024185;28;20093;-76
2022/12/20 00:25:30;;;;;;;15.15;4.20;;;;;;;9.74;100.00;101217.28;5026667;28;20377;-73
2022/12/20 00:27:55;;;;;;;17.05;4.40;;;;;;;9.80;100.00;101213.84;5025382;28;20037;-75
2022/12/20 00:30:21;;;;;;;17.23;4.30;;;;;;;9.84;100.00;101221.84;5024207;28;20065;-76
2022/12/20 00:32:46;;;;;;;14.45;4.20;;;;;;;9.85;100.00;101206.91;5026483;28;20041;-76
2022/12/20 00:35:12;;;;;;;18.40;4.60;;;;;;;9.86;100.00;101193.72;5024260;28;20030;-76
2022/12/20 00:37:38;;;;;;;16.70;4.38;;;;;;;9.91;100.00;101212.25;5027012;28;20030;-76
2022/12/20 00:40:05;;;;;;;16.05;4.32;;;;;;;9.85;100.00;101212.19;5023904;28;20038;-76
2022/12/20 00:42:30;;;;;;;16.13;4.43;;;;;;;9.92;100.00;101198.19;5026380;28;20025;-73
2022/12/20 00:44:56;;;;;;;17.33;4.53;;;;;;;10.01;100.00;101186.84;5024657;28;20104;-69
2022/12/20 00:47:21;;;;;;;15.38;4.20;;;;;;;9.98;100.00;101179.78;5025808;28;20409;-67
2022/12/20 00:49:47;;;;;;;18.23;4.65;;;;;;;9.97;100.00;101175.34;5025589;28;20033;-68
2022/12/20 00:52:12;;;;;;;16.00;4.38;;;;;;;10.00;100.00;101185.94;5023341;28;20049;-68
2022/12/20 00:54:37;;;;;;;16.48;4.45;;;;;;;10.10;100.00;101181.66;5027016;28;20041;-70
2022/12/20 00:57:03;;;;;;;17.65;4.50;;;;;;;10.10;100.00;101201.03;5022730;28;20112;-68
2022/12/20 00:59:28;;;;;;;17.08;4.60;;;;;;;10.06;100.00;101196.59;5025759;28;20128;-68
2022/12/20 01:01:53;;;;;;;17.05;4.60;;;;;;;9.99;100.00;101184.19;5024767;28;20044;-68
2022/12/20 01:04:19;;;;;;;18.13;4.70;;;;;;;9.81;100.00;101191.88;5023010;28;20041;-70
2022/12/20 01:06:44;;;;;;;17.75;4.70;;;;;;;9.41;100.00;101187.81;5026055;28;20112;-68
2022/12/20 01:09:10;;;;;;;19.20;5.03;;;;;;;9.05;100.00;101185.50;5023041;28;20508;-75
2022/12/20 01:11:37;;;;;;;19.33;5.28;;;;;;;8.80;100.00;101184.22;5023154;28;20113;-74
2022/12/20 01:14:06;;;;;;;18.23;5.10;;;;;;;8.71;100.00;101199.00;5026456;28;20445;-75
2022/12/20 01:16:37;;;;;;;18.30;5.20;;;;;;;8.68;100.00;101204.22;5023559;28;20469;-75
2022/12/20 01:19:03;;;;;;;18.53;5.27;;;;;;;8.57;100.00;101197.88;5026264;28;20381;-75
2022/12/20 01:21:29;;;;;;;18.10;5.35;;;;;;;8.55;100.00;101189.06;5023540;28;20116;-75
2022/12/20 01:23:55;;;;;;;19.63;5.50;;;;;;;8.51;100.00;101198.63;5023758;28;20464;-75
2022/12/20 01:26:23;;;;;;;20.02;5.78;;;;;;;8.48;100.00;101171.38;5024571;28;20044;-75
2022/12/20 01:28:52;;;;;;;18.88;5.43;;;;;;;8.43;100.00;101202.88;5023872;28;20080;-76
2022/12/20 01:31:19;;;;;;;20.13;5.80;;;;;;;8.36;100.00;101187.81;5025083;28;20090;-77
2022/12/20 01:33:46;;;;;;;18.30;5.32;;;;;;;8.36;100.00;101199.22;5023140;28;20393;-76
2022/12/20 01:36:17;;;;;;;17.73;5.43;;;;;;;8.31;100.00;101192.94;5025667;28;20078;-76
2022/12/20 01:38:43;;;;;;;18.90;5.85;;;;;;;8.28;100.00;101187.63;5022997;28;20054;-76
2022/12/20 01:41:15;;;;;;;18.20;5.97;;;;;;;8.25;100.00;101174.41;5025808;28;20041;-77
2022/12/20 01:43:44;;;;;;;17.40;5.80;;;;;;;8.27;100.00;101175.34;5022635;28;20037;-77
2022/12/20 01:46:10;;;;;;;19.23;6.35;;;;;;;8.21;100.00;101172.56;5025793;28;20167;-73
2022/12/20 01:48:35;;;;;;;19.45;6.82;;;;;;;8.20;100.00;101181.34;5022497;28;20120;-71
2022/12/20 01:51:01;;;;;;;17.95;6.30;;;;;;;8.20;100.00;101170.81;5025176;28;20029;-72
2022/12/20 01:53:27;;;;;;;20.52;6.95;;;;;;;8.21;100.00;101162.03;5023409;28;20393;-72
2022/12/20 01:55:52;;;;;;;20.20;6.65;;;;;;;8.23;100.00;101149.81;5023929;28;20030;-71
2022/12/20 01:58:19;;;;;;;19.73;7.00;;;;;;;8.17;100.00;101158.47;5024463;28;20030;-71
2022/12/20 02:00:45;;;;;;;20.40;6.97;;;;;;;8.19;100.00;101153.22;5022784;28;20503;-76
2022/12/20 02:03:13;;;;;;;20.42;6.80;;;;;;;8.22;100.00;101147.13;5025343;28;20026;-71
2022/12/20 02:05:45;;;;;;;20.08;6.85;;;;;;;8.18;100.00;101147.09;5021908;28;20030;-72
2022/12/20 02:08:14;;;;;;;23.65;7.80;;;;;;;8.18;100.00;101148.81;5020994;28;20061;-72
2022/12/20 02:11:01;;;;;;;22.73;7.22;;;;;;;8.25;100.00;101157.72;5025417;28;20108;-65
2022/12/20 02:13:44;;;;;;;21.98;7.38;;;;;;;8.19;100.00;101133.03;5024212;28;20389;-67
2022/12/20 02:16:13;;;;;;;21.80;7.30;;;;;;;8.14;100.00;101134.72;5022023;28;20040;-66
2022/12/20 02:18:51;;;;;;;21.77;7.43;;;;;;;8.12;100.00;101125.00;5020448;28;20503;-65
2022/12/20 02:21:29;;;;;;;19.40;7.13;;;;;;;8.10;100.00;101121.47;5022440;28;20113;-66
2022/12/20 02:24:31;;;;;;;19.02;6.60;;;;;;;8.06;100.00;101106.47;5023267;28;20022;-66
2022/12/20 02:27:22;;;;;;;19.43;6.80;;;;;;;8.03;100.00;101110.78;5023819;28;20414;-65
2022/12/20 02:30:16;;;;;;;20.83;6.80;;;;;;;7.96;100.00;101116.78;5022485;28;20032;-66
2022/12/20 02:33:08;;;;;;;20.58;6.53;;;;;;;7.96;100.00;101113.28;5022078;28;20377;-65
2022/12/20 02:35:35;;;;;;;18.17;6.38;;;;;;;7.90;100.00;101103.53;5021348;28;20393;-65
2022/12/20 02:38:22;;;;;;;17.63;6.40;;;;;;;7.90;100.00;101100.88;5024483;28;20025;-66
2022/12/20 02:40:52;;;;;;;18.95;6.22;;;;;;;7.89;100.00;101106.13;5024272;28;20029;-67
2022/12/20 02:46:05;;;;;;;19.25;6.45;;;;;;;7.92;100.00;101107.09;5021851;28;20087;-67
2022/12/20 02:48:33;;;;;;;19.08;6.20;;;;;;;7.87;100.00;101103.47;5023859;28;20033;-73
2022/12/20 02:51:00;;;;;;;17.58;6.45;;;;;;;7.92;100.00;101106.19;5022427;28;20112;-65
2022/12/20 02:53:28;;;;;;;19.63;6.60;;;;;;;7.91;100.00;101093.91;5023137;28;20054;-66
2022/12/20 02:56:11;;;;;;;19.35;6.30;;;;;;;7.94;100.00;101094.84;5022870;28;20112;-66
2022/12/20 02:58:46;;;;;;;17.80;6.10;;;;;;;8.01;100.00;101094.09;5021484;28;20425;-67
2022/12/20 03:01:21;;;;;;;17.75;5.88;;;;;;;7.99;100.00;101098.47;5021394;28;20089;-66
2022/12/20 03:03:47;;;;;;;17.50;5.90;;;;;;;7.96;100.00;101093.09;5023979;28;20095;-66
2022/12/20 03:06:13;;;;;;;16.52;5.60;;;;;;;7.96;100.00;101092.22;5021215;28;20117;-68
2022/12/20 03:08:38;;;;;;;17.17;5.50;;;;;;;8.03;100.00;101083.59;5024718;28;20109;-66
2022/12/20 03:11:03;;;;;;;17.77;5.70;;;;;;;8.12;100.00;101098.66;5021328;28;20030;-70
2022/12/20 03:13:29;;;;;;;17.35;5.40;;;;;;;8.11;100.00;101091.63;5023274;28;20056;-70
2022/12/20 03:15:54;;;;;;;16.67;5.40;;;;;;;8.07;100.00;101095.97;5022694;28;20038;-71
2022/12/20 03:18:19;;;;;;;18.95;5.45;;;;;;;8.15;100.00;101099.59;5022015;28;20072;-70
2022/12/20 03:20:45;;;;;;;15.15;5.07;;;;;;;8.21;100.00;101096.19;5027869;28;20039;-71
2022/12/20 03:23:10;;;;;;;18.67;5.35;;;;;;;8.23;100.00;101086.59;5025347;28;20081;-70
2022/12/20 03:25:35;;;;;;;14.98;5.10;;;;;;;8.26;100.00;101085.75;5026965;28;20120;-71
2022/12/20 03:28:01;;;;;;;16.50;4.88;;;;;;;8.27;100.00;101079.63;5025657;28;20068;-71
2022/12/20 03:30:26;;;;;;;15.65;5.03;;;;;;;8.36;100.00;101074.53;5027053;28;20034;-71
2022/12/20 03:32:52;;;;;;;15.25;4.80;;;;;;;8.43;100.00;101086.03;5026959;28;20116;-71
2022/12/20 03:35:17;;;;;;;13.63;4.90;;;;;;;8.42;100.00;101074.63;5025874;28;20087;-71
2022/12/20 03:37:43;;;;;;;14.82;4.53;;;;;;;8.50;100.00;101082.69;5028100;28;20397;-71
2022/12/20 03:40:08;;;;;;;14.95;4.63;;;;;;;8.62;100.00;101089.91;5023595;28;20393;-70
2022/12/20 03:42:34;;;;;;;14.90;4.88;;;;;;;8.59;100.00;101090.75;5027891;28;20034;-71
2022/12/20 03:45:00;;;;;;;15.35;4.45;;;;;;;8.61;100.00;101099.56;5025641;28;20037;-71
2022/12/20 03:47:25;;;;;;;12.27;4.40;;;;;;;8.74;100.00;101100.66;5026481;28;20505;-72
2022/12/20 03:49:51;;;;;;;12.93;4.20;;;;;;;8.84;100.00;101102.56;5027015;28;20021;-69
2022/12/20 03:52:16;;;;;;;14.60;4.30;;;;;;;8.92;100.00;101089.50;5024798;28;20081;-69
2022/12/20 03:54:42;;;;;;;14.20;4.25;;;;;;;8.93;100.00;101093.00;5026549;28;20091;-69
2022/12/20 03:57:07;;;;;;;12.68;4.22;;;;;;;8.94;100.00;101090.41;5024565;28;20164;-68
2022/12/20 03:59:34;;;;;;;16.20;4.35;;;;;;;9.01;100.00;101087.00;5027140;28;20030;-67
2022/12/20 04:01:59;;;;;;;15.65;4.32;;;;;;;9.18;100.00;101089.00;5025298;28;20044;-66
2022/12/20 04:04:25;;;;;;;13.68;4.28;;;;;;;9.26;100.00;101074.13;5026500;28;20034;-69
2022/12/20 04:06:50;;;;;;;13.93;3.92;;;;;;;9.39;100.00;101083.09;5026668;28;20032;-69
2022/12/20 04:09:15;;;;;;;13.77;4.20;;;;;;;9.33;100.00;101070.72;5024960;28;20389;-71
2022/12/20 04:11:41;;;;;;;14.27;4.20;;;;;;;9.35;100.00;101084.84;5026484;28;20481;-70
2022/12/20 04:14:06;;;;;;;16.13;4.28;;;;;;;9.43;100.00;101069.09;5023173;28;20073;-69
2022/12/20 04:16:32;;;;;;;13.43;4.10;;;;;;;9.51;100.00;101082.38;5026659;28;20124;-69
2022/12/20 04:18:58;;;;;;;13.38;4.03;;;;;;;9.47;100.00;101085.88;5025455;28;20030;-69
2022/12/20 04:21:28;;;;;;;13.35;4.18;;;;;;;9.43;100.00;101080.53;5025664;28;20069;-70
2022/12/20 04:23:55;;;;;;;14.82;4.30;;;;;;;9.42;100.00;101085.78;5024452;28;20029;-68
2022/12/20 04:26:20;;;;;;;12.45;4.05;;;;;;;9.49;100.00;101077.06;5023814;28;20380;-69
2022/12/20 04:28:46;;;;;;;12.93;4.10;;;;;;;9.50;100.00;101093.81;5026640;28;20032;-67
2022/12/20 04:31:11;;;;;;;10.93;3.75;;;;;;;9.62;100.00;101087.81;5022727;28;20034;-75
2022/12/20 04:33:37;;;;;;;10.63;3.70;;;;;;;9.66;100.00;101079.06;5027289;28;20029;-74
2022/12/20 04:36:02;;;;;;;14.45;4.05;;;;;;;9.67;100.00;101083.44;5024352;28;20071;-72
2022/12/20 04:38:28;;;;;;;13.52;3.95;;;;;;;9.59;100.00;101075.44;5026179;28;20037;-71
2022/12/20 04:40:54;;;;;;;13.52;3.80;;;;;;;9.79;100.00;101073.03;5025720;28;20037;-73
2022/12/20 04:43:20;;;;;;;12.50;4.00;;;;;;;9.77;100.00;101077.41;5024538;28;20041;-75
2022/12/20 04:45:47;;;;;;;13.85;3.90;;;;;;;9.80;100.00;101076.56;5026551;28;20101;-74
2022/12/20 04:48:13;;;;;;;12.95;3.95;;;;;;;9.80;100.00;101071.28;5023425;28;20477;-74
2022/12/20 04:50:39;;;;;;;14.13;3.97;;;;;;;9.88;100.00;101077.53;5027080;28;20127;-72
2022/12/20 04:55:48;;;;;;;13.80;4.00;;;;;;;9.76;100.00;101076.53;5024562;28;20088;-75
2022/12/20 04:58:13;;;;;;;12.70;3.90;;;;;;;9.83;100.00;101072.22;5026461;28;20025;-74
2022/12/20 05:00:39;;;;;;;12.00;3.80;;;;;;;9.84;100.00;101073.09;5022070;28;20040;-74
2022/12/20 05:03:04;;;;;;;12.65;3.80;;;;;;;9.80;100.00;101069.53;5024973;28;20038;-74
2022/12/20 05:05:29;;;;;;;12.75;3.92;;;;;;;9.74;100.00;101057.16;5024190;28;20491;-74
2022/12/20 05:07:55;;;;;;;12.05;3.80;;;;;;;9.81;100.00;101062.50;5023565;28;20030;-74
2022/12/20 05:10:21;;;;;;;11.18;3.67;;;;;;;9.85;100.00;101048.47;5024237;28;20036;-75
2022/12/20 05:12:46;;;;;;;13.10;4.10;;;;;;;9.89;100.00;101058.19;5023401;28;20358;-74
2022/12/20 05:15:11;;;;;;;12.90;3.97;;;;;;;9.88;100.00;101048.50;5026307;28;20040;-74
2022/12/20 05:17:37;;;;;;;13.00;4.00;;;;;;;9.88;100.00;101043.22;5023166;28;20030;-75
2022/12/20 05:20:04;;;;;;;14.88;4.07;;;;;;;9.89;100.00;101043.22;5025465;28;20116;-74
2022/12/20 05:27:57;;;;;;;13.40;3.83;;;;;;;9.86;100.00;101031.72;5024546;28;20079;-74
2022/12/20 05:30:23;;;;;;;14.77;4.05;;;;;;;9.89;100.00;101023.88;5024032;28;20029;-74
2022/12/20 05:32:49;;;;;;;14.18;4.07;;;;;;;9.85;100.00;101029.97;5025032;28;20041;-74
2022/12/20 05:35:15;;;;;;;12.43;3.80;;;;;;;9.86;100.00;101013.25;5023004;28;20500;-74
2022/12/20 05:37:40;;;;;;;13.60;4.00;;;;;;;9.87;100.00;101025.59;5025903;28;20033;-74
2022/12/20 05:40:07;;;;;;;13.38;3.92;;;;;;;9.82;100.00;101025.56;5021847;28;20101;-74
2022/12/20 05:42:32;;;;;;;13.20;4.00;;;;;;;9.87;100.00;101022.94;5025043;28;20109;-73
2022/12/20 05:44:57;;;;;;;13.93;3.90;;;;;;;9.86;100.00;101013.25;5023634;28;20208;-74
2022/12/20 05:47:23;;;;;;;11.90;3.80;;;;;;;9.88;100.00;101020.31;5023636;28;20034;-73
2022/12/20 05:49:49;;;;;;;13.10;3.85;;;;;;;9.83;100.00;101014.13;5024887;28;20180;-74
2022/12/20 05:52:14;;;;;;;13.00;3.70;;;;;;;9.95;100.00;101014.22;5021030;28;20054;-74
2022/12/20 05:54:39;;;;;;;12.50;3.70;;;;;;;9.99;100.00;101001.97;5025709;28;20072;-73
2022/12/20 05:57:05;;;;;;;13.82;3.92;;;;;;;9.92;100.00;100993.09;5022966;28;20026;-74
2022/12/20 05:59:30;;;;;;;13.90;3.72;;;;;;;10.02;100.00;100998.44;5024374;28;20124;-73
2022/12/20 06:01:55;;;;;;;11.05;3.42;;;;;;;9.97;100.00;100981.69;5023676;28;20025;-73
2022/12/20 06:04:21;;;;;;;13.93;3.78;;;;;;;9.89;100.00;100990.41;5021543;28;20029;-69
2022/12/20 06:06:46;;;;;;;12.93;3.75;;;;;;;9.91;100.00;100980.75;5023268;28;20490;-70
2022/12/20 06:09:12;;;;;;;13.15;3.65;;;;;;;9.88;100.00;100964.88;5029409;28;20030;-72
2022/12/20 06:11:37;;;;;;;12.70;3.90;;;;;;;9.83;100.00;100961.31;5028092;28;20509;-67
2022/12/20 06:14:03;;;;;;;13.20;3.67;;;;;;;9.75;100.00;100961.22;5027039;28;20509;-70
2022/12/20 06:16:29;;;;;;;10.50;3.70;;;;;;;9.72;100.00;100948.00;5031220;28;20025;-73
2022/12/20 06:18:54;;;;;;;12.48;3.70;;;;;;;9.71;100.00;100956.81;5025272;28;20026;-69
2022/12/20 06:21:19;;;;;;;13.57;3.63;;;;;;;9.65;100.00;100962.00;5026330;28;20076;-69
2022/12/20 06:23:45;;;;;;;11.30;3.40;;;;;;;9.68;100.00;100966.44;5025856;28;20539;-66
2022/12/20 06:26:10;;;;;;;9.98;3.50;;;;;;;9.63;100.00;100960.25;5026748;28;20038;-67
2022/12/20 06:28:41;;;;;;;11.38;3.53;;;;;;;9.56;100.00;100964.56;5026392;28;20059;-69
2022/12/20 06:31:07;;;;;;;13.25;3.85;;;;;;;9.55;100.00;100963.69;5028275;28;20396;-68
2022/12/20 06:33:33;;;;;;;10.23;3.40;;;;;;;9.62;100.00;100966.38;5024408;28;20037;-67
2022/12/20 06:35:58;;;;;;;10.80;3.50;;;;;;;9.64;100.00;100965.53;5030922;28;20041;-66
2022/12/20 06:38:24;;;;;;;10.85;3.38;;;;;;;9.65;100.00;100974.34;5024672;28;20026;-66
2022/12/20 06:40:49;;;;;;;11.63;3.55;;;;;;;9.67;100.00;100970.84;5023615;28;20040;-67
2022/12/20 06:43:15;;;;;;;12.05;3.25;;;;;;;9.71;100.00;100964.72;5026563;28;20032;-67
2022/12/20 06:45:40;;;;;;;10.15;3.45;;;;;;;9.72;100.00;100970.88;5027591;28;20072;-66
2022/12/20 06:48:06;;;;;;;10.70;3.45;;;;;;;9.70;100.00;100970.88;5026237;28;20545;-66
2022/12/20 06:50:31;;;;;;;11.77;3.45;;;;;;;9.82;100.00;100966.59;5010745;28;20473;-67
2022/12/20 06:52:56;;;;;;;10.00;3.20;;;;;;;9.87;100.00;100962.22;5025626;28;20049;-69
2022/12/20 06:55:22;;;;;;;10.52;3.38;;;;;;;9.89;100.00;100961.38;5025457;28;20037;-68
2022/12/20 06:57:47;;;;;;;10.55;3.40;;;;;;;9.83;100.00;100958.69;5024683;28;20029;-70
2022/12/20 07:00:13;;;;;;;11.60;3.60;;;;;;;9.86;100.00;100965.72;5024834;28;20034;-70
2022/12/20 07:02:38;;;;;;;11.63;3.30;;;;;;;9.93;100.00;100978.09;5023293;28;20032;-66
2022/12/20 07:05:04;;;;;;;12.00;3.45;;;;;;;9.98;100.00;100957.94;5027170;28;20021;-68
2022/12/20 07:07:29;;;;;;;12.20;3.50;;;;;;;10.07;100.00;100971.19;5027087;28;20428;-66
2022/12/20 07:09:55;;;;;;;10.50;3.20;;;;;;;10.09;100.00;100974.75;5029044;28;20061;-66
2022/12/20 07:12:21;;;;;;;10.60;3.30;;;;;;;10.11;100.00;100967.72;5023412;28;20661;-66
2022/12/20 07:14:46;;;;;;;10.10;3.20;;;;;;;10.17;100.00;100971.28;5024584;28;20101;-67
2022/12/20 07:17:12;;;;;;;8.82;3.20;;;;;;;10.15;100.00;100973.03;5026521;28;20120;-71
2022/12/20 07:19:37;;;;;;;10.73;3.38;;;;;;;10.19;100.00;100974.81;5026571;28;20084;-72
2022/12/20 07:22:04;;;;;;;11.50;3.33;;;;;;;10.19;100.00;100985.38;5009045;28;20034;-67
2022/12/20 07:24:30;;;;;;;9.45;3.28;;;;;;;10.17;100.00;100972.16;5025918;28;20531;-67
2022/12/20 07:26:55;;;;;;;11.07;3.10;;;;;;;10.12;100.00;100958.94;5021262;28;20129;-69
2022/12/20 07:29:20;;;;;;;7.75;3.10;;;;;;;10.17;100.00;100963.38;5023047;28;20029;-68
2022/12/20 07:31:46;;;;;;;10.68;3.30;;;;;;;10.16;100.00;100982.72;5024667;28;20057;-69
2022/12/20 07:34:11;;;;;;;9.55;3.28;;;;;;;10.21;100.00;100971.31;5028468;28;20026;-69
2022/12/20 07:36:37;;;;;;;9.25;2.95;;;;;;;10.21;100.00;100973.09;5026943;28;20034;-67
2022/12/20 07:39:02;;;;;;;8.65;3.20;;;;;;;10.22;100.00;100977.47;5025902;28;20029;-68
2022/12/20 07:41:28;;;;;;;9.25;3.25;;;;;;;10.32;100.00;100981.09;5022732;28;20087;-70
2022/12/20 07:43:53;;;;;;;8.02;2.97;;;;;;;10.31;100.00;100969.66;5020665;28;20389;-67
2022/12/20 07:46:19;;;;;;;10.30;3.10;;;;;;;10.30;100.00;100983.72;5027920;28;20477;-67
2022/12/20 07:48:44;;;;;;;12.63;3.60;;;;;;;10.32;100.00;100981.09;5026335;28;20113;-68
2022/12/20 07:51:17;;;;;;;12.57;3.83;;;;;;;10.32;100.00;100981.09;5024535;28;20057;-68
2022/12/20 07:53:50;;;;;;;13.27;3.50;;;;;;;10.42;100.00;100975.91;5024018;28;20041;-67
2022/12/20 07:56:18;;;;;;;9.93;3.30;;;;;;;10.34;100.00;100993.47;5025580;28;20034;-68
2022/12/20 07:58:44;;;;;;;9.25;3.10;;;;;;;10.33;100.00;100988.16;5025136;28;20025;-68
2022/12/20 08:01:11;;;;;;;10.90;3.33;;;;;;;10.21;100.00;101002.16;5026703;28;20036;-67
2022/12/20 08:03:42;;;;;;;11.57;3.42;;;;;;;9.75;100.00;101003.47;5023937;28;20044;-67
2022/12/20 08:06:08;;;;;;;14.32;3.80;;;;;;;9.30;100.00;100996.81;5030310;28;20030;-70
2022/12/20 08:08:37;;;;;;;11.35;3.45;;;;;;;9.15;100.00;101001.91;5029387;28;20099;-68
2022/12/20 08:11:03;;;;;;;15.02;3.58;;;;;;;8.94;100.00;100981.41;5027690;28;20363;-67
2022/12/20 08:13:31;;;;;;;14.05;3.70;;;;;;;8.83;100.00;100989.19;5026537;28;20040;-69
2022/12/20 08:15:56;;;;;;;12.05;3.70;;;;;;;8.80;100.00;100978.59;5026530;28;20184;-75
2022/12/20 08:18:21;;;;;;;13.70;3.88;;;;;;;8.76;100.00;100976.78;5028264;28;20152;-73
2022/12/20 08:20:47;;;;;;;12.88;3.80;;;;;;;8.72;100.00;100989.03;5026698;28;20550;-73
2022/12/20 08:23:12;;;;;;;13.52;3.78;;;;;;;8.73;100.00;100993.44;5026688;28;20546;-70
2022/12/20 08:25:38;;;;;;;13.60;3.67;;;;;;;8.68;100.00;100996.00;5029323;28;20472;-69
2022/12/20 08:28:03;;;;;;;16.98;4.03;;;;;;;8.66;100.00;100997.72;5029983;28;20488;-72
2022/12/20 08:30:29;;;;;;;13.73;3.88;;;;;;;8.73;100.00;100999.59;5029158;28;20527;-70
2022/12/20 08:32:55;;;;;;;14.75;4.07;;;;;;;8.73;100.00;100994.31;5030794;28;20034;-73
2022/12/20 08:35:21;;;;;;;14.88;4.30;;;;;;;8.66;100.00;100996.84;5028385;28;20381;-72
2022/12/20 08:37:47;;;;;;;13.32;3.90;;;;;;;8.65;100.00;100985.44;5031590;28;20076;-72
2022/12/20 08:40:13;;;;;;;14.30;4.57;;;;;;;8.61;100.00;100990.63;5027740;28;20441;-71
2022/12/20 08:42:39;;;;;;;15.00;4.50;;;;;;;8.57;100.00;100991.44;5023918;28;20481;-71
2022/12/20 08:45:05;;;;;;;14.93;4.10;;;;;;;8.56;100.00;100993.19;5027185;28;20040;-74
2022/12/20 08:47:30;;;;;;;16.48;4.40;;;;;;;8.53;100.00;100979.97;5024347;28;20025;-72
2022/12/20 08:49:55;;;;;;;14.23;4.28;;;;;;;8.51;100.00;100973.78;5025417;28;20044;-74
2022/12/20 08:52:21;;;;;;;16.98;4.53;;;;;;;8.49;100.00;100972.88;5025237;28;20128;-73
2022/12/20 08:54:46;;;;;;;14.18;4.40;;;;;;;8.49;100.00;100968.50;5024069;28;20401;-67
2022/12/20 08:57:12;;;;;;;14.50;4.32;;;;;;;8.50;100.00;100990.47;5025410;28;20084;-66
2022/12/20 08:59:38;;;;;;;14.80;4.30;;;;;;;8.51;100.00;100976.44;5023697;28;20037;-66
2022/12/20 09:02:03;;;;;;;17.00;4.88;;;;;;;8.45;100.00;100978.97;5026296;28;20025;-66
2022/12/20 09:04:28;;;;;;;16.50;4.75;;;;;;;8.42;100.00;100971.88;5022918;28;20033;-66
2022/12/20 09:06:54;;;;;;;17.02;5.13;;;;;;;8.36;100.00;100970.03;5023910;28;20034;-66
2022/12/20 09:09:19;;;;;;;17.48;5.15;;;;;;;8.42;100.00;100968.34;5025276;28;20527;-66
2022/12/20 09:11:45;;;;;;;17.10;5.13;;;;;;;8.43;100.00;100956.94;5023417;28;20030;-65
2022/12/20 09:14:10;;;;;;;16.88;5.50;;;;;;;8.36;100.00;100956.84;5027029;28;20033;-66
2022/12/20 09:16:35;;;;;;;17.35;5.40;;;;;;;8.37;100.00;100960.38;5021275;28;20037;-67
2022/12/20 09:19:02;;;;;;;16.98;5.60;;;;;;;8.38;100.00;100960.38;5025548;28;20034;-68
2022/12/20 09:21:28;;;;;;;17.42;5.43;;;;;;;8.41;100.00;100969.22;5024254;28;20056;-66
2022/12/20 09:23:55;;;;;;;18.15;6.07;;;;;;;8.41;100.00;100967.47;5024513;28;20065;-75
2022/12/20 09:26:22;;;;;;;18.95;5.70;;;;;;;8.48;100.00;100964.09;5024857;28;20029;-74
2022/12/20 09:28:48;;;;;;;18.63;5.78;;;;;;;8.50;100.00;100961.47;5023814;28;20041;-75
2022/12/20 09:31:22;;;;;;;18.55;6.05;;;;;;;8.52;100.00;100967.69;5025770;28;20022;-74
2022/12/20 09:33:48;;;;;;;18.10;5.75;;;;;;;8.55;100.00;100970.34;5026382;28;20026;-71
2022/12/20 09:36:17;;;;;;;18.33;6.13;;;;;;;8.54;100.00;100965.94;5025743;28;20389;-74
2022/12/20 09:38:43;;;;;;;18.90;5.78;;;;;;;8.57;100.00;100971.25;5029715;28;20025;-75
2022/12/20 09:41:24;;;;;;;18.10;5.90;;;;;;;8.58;100.00;100969.47;5026000;28;20030;-74
2022/12/20 09:43:50;;;;;;;18.08;5.50;;;;;;;8.59;100.00;100951.09;5025080;28;20045;-74
2022/12/20 09:46:15;;;;;;;17.98;5.85;;;;;;;8.62;100.00;100956.41;5028693;28;20025;-76
2022/12/20 09:48:42;;;;;;;18.20;5.65;;;;;;;8.63;100.00;100963.41;5026012;28;20045;-76
2022/12/20 09:51:10;;;;;;;16.67;5.35;;;;;;;8.62;100.00;100963.41;5026856;28;20057;-75
2022/12/20 09:53:59;;;;;;;15.90;5.53;;;;;;;8.68;100.00;100964.38;5029644;28;20052;-72
2022/12/20 09:56:34;;;;;;;17.15;5.68;;;;;;;8.61;100.00;100969.56;5023980;28;20081;-71
2022/12/20 09:59:19;;;;;;;18.45;5.57;;;;;;;8.63;100.00;100959.91;5025263;28;20037;-73
2022/12/20 10:01:46;;;;;;;16.83;5.20;;;;;;;8.64;100.00;100959.06;5022498;28;20025;-75
2022/12/20 10:04:27;;;;;;;17.77;5.60;;;;;;;8.63;100.00;100971.31;5028382;28;20028;-75
2022/12/20 10:07:01;;;;;;;18.55;5.40;;;;;;;8.68;100.00;100958.25;5029380;28;20022;-74
2022/12/20 10:09:51;;;;;;;17.23;5.13;;;;;;;8.70;100.00;100956.50;5022990;28;20434;-74
2022/12/20 10:12:19;;;;;;;16.30;5.10;;;;;;;8.70;100.00;100956.50;5024713;28;20432;-75
2022/12/20 10:15:13;;;;;;;15.85;5.00;;;;;;;8.72;100.00;100949.47;5024103;28;20100;-66
2022/12/20 10:17:57;;;;;;;17.60;5.10;;;;;;;8.81;100.00;100959.28;5022876;28;20040;-68
2022/12/20 10:20:45;;;;;;;14.80;4.75;;;;;;;8.88;100.00;100958.47;5028359;28;20030;-68
2022/12/20 10:23:22;;;;;;;16.70;4.82;;;;;;;8.96;100.00;100963.88;5027188;28;20029;-67
2022/12/20 10:25:50;;;;;;;16.40;4.70;;;;;;;8.99;100.00;100954.25;5030678;28;20029;-70
2022/12/20 10:28:19;;;;;;;15.55;4.80;;;;;;;9.00;100.00;100969.22;5028012;28;20393;-67
2022/12/20 10:30:44;;;;;;;16.60;4.90;;;;;;;8.97;100.00;100945.44;5028110;28;20022;-70
2022/12/20 10:33:22;;;;;;;16.45;4.90;;;;;;;9.06;100.00;100957.84;5027924;28;20041;-66
2022/12/20 10:35:49;;;;;;;18.55;5.10;;;;;;;9.05;100.00;100951.66;5029723;28;20751;-66
2022/12/20 10:38:17;;;;;;;16.92;5.35;;;;;;;9.00;100.00;100947.22;5025562;28;20038;-67
2022/12/20 10:40:44;;;;;;;14.75;4.80;;;;;;;9.06;100.00;100957.84;5031195;28;20029;-65
2022/12/20 10:43:21;;;;;;;17.27;5.30;;;;;;;9.04;100.00;100947.28;5032172;28;20033;-64
2022/12/20 10:46:05;;;;;;;17.23;5.18;;;;;;;9.03;100.00;100949.91;5024773;28;20026;-65
2022/12/20 10:48:33;;;;;;;18.85;5.50;;;;;;;9.03;100.00;100958.69;5026007;28;20041;-66
2022/12/20 10:51:03;;;;;;;16.63;5.72;;;;;;;9.06;100.00;100942.91;5029139;28;20029;-66
2022/12/20 10:53:30;;;;;;;18.85;6.00;;;;;;;8.96;100.00;100935.75;5027116;28;20042;-65
2022/12/20 10:56:16;;;;;;;19.75;6.22;;;;;;;8.95;100.00;100941.00;5030967;28;20036;-66
2022/12/20 10:58:50;;;;;;;19.00;6.22;;;;;;;8.93;100.00;100929.53;5026433;28;20068;-65
2022/12/20 11:01:18;;;;;;;18.65;6.53;;;;;;;8.97;100.00;100931.34;5027657;28;20129;-73
2022/12/20 11:03:55;;;;;;;19.92;6.07;;;;;;;8.98;100.00;100931.38;5028047;28;20539;-71
2022/12/20 11:06:23;;;;;;;19.33;6.22;;;;;;;8.90;100.00;100938.31;5026618;28;20047;-74
2022/12/20 11:08:49;;;;;;;19.38;6.55;;;;;;;8.88;100.00;100934.75;5027371;28;20030;-74
2022/12/20 11:11:20;;;;;;;18.42;6.13;;;;;;;8.92;100.00;100931.31;5029086;28;20092;-74
2022/12/20 11:13:47;;;;;;;21.35;7.18;;;;;;;8.88;100.00;100927.75;5023459;28;20381;-75
2022/12/20 11:16:38;;;;;;;19.67;7.03;;;;;;;8.92;100.00;100925.16;5029225;28;20036;-74
2022/12/20 11:19:21;;;;;;;20.73;6.75;;;;;;;8.98;100.00;100912.91;5021796;28;20108;-73
2022/12/20 11:22:00;;;;;;;20.23;7.00;;;;;;;8.97;100.00;100911.16;5028385;28;20033;-74
2022/12/20 11:24:34;;;;;;;20.15;7.10;;;;;;;8.92;100.00;100922.50;5027918;28;20018;-75
2022/12/20 11:27:22;;;;;;;20.13;7.35;;;;;;;8.87;100.00;100928.63;5024483;28;20481;-73
2022/12/20 11:29:54;;;;;;;20.48;7.78;;;;;;;8.86;100.00;100923.31;5024477;28;20429;-74
2022/12/20 11:32:49;;;;;;;20.58;7.70;;;;;;;8.87;100.00;100927.75;5021507;28;20397;-64